createdAt,value
2022-09-16T00:02:54.432Z,97177.54
2022-09-16T00:05:56.205Z,97180.21
2022-09-16T00:09:02.371Z,97184.60
2022-09-16T00:12:07.545Z,97190.58
2022-09-16T00:15:09.884Z,97191.16
2022-09-16T00:18:11.835Z,97195.91
2022-09-16T00:21:13.862Z,97196.23
2022-09-16T00:24:16.311Z,97196.34
2022-09-16T00:27:17.845Z,97200.86
2022-09-16T00:30:20.431Z,97204.51
2022-09-16T00:33:22.014Z,97207.48
2022-09-16T00:36:23.602Z,97206.83
2022-09-16T00:39:25.182Z,97208.48
2022-09-16T00:42:26.669Z,97208.38
2022-09-16T00:45:30.974Z,97211.56
2022-09-16T00:48:33.694Z,97209.31
2022-09-16T00:51:37.712Z,97212.05
2022-09-16T00:54:40.661Z,97211.86
2022-09-16T00:57:43.600Z,97206.38
2022-09-16T01:00:45.364Z,97202.31
2022-09-16T01:03:54.948Z,97199.02
2022-09-16T01:06:56.909Z,97200.80
2022-09-16T01:09:59.055Z,97198.05
2022-09-16T01:13:04.781Z,97202.09
2022-09-16T01:16:31.003Z,97199.44
2022-09-16T01:19:53.631Z,97201.95
2022-09-16T01:23:13.190Z,97206.25
2022-09-16T01:26:26.632Z,97208.90
2022-09-16T01:29:55.555Z,97212.98
2022-09-16T01:33:04.305Z,97209.03
2022-09-16T01:36:14.991Z,97201.48
2022-09-16T01:39:35.113Z,97201.45
2022-09-16T01:42:39.669Z,97207.71
2022-09-16T01:46:11.804Z,97205.56
2022-09-16T01:49:13.257Z,97206.42
2022-09-16T01:52:33.164Z,97204.75
2022-09-16T01:55:41.171Z,97206.48
2022-09-16T01:58:58.650Z,97216.90
2022-09-16T02:02:23.117Z,97221.17
2022-09-16T02:05:30.625Z,97217.81
2022-09-16T02:08:45.340Z,97221.38
2022-09-16T02:11:50.453Z,97222.45
2022-09-16T02:14:56.533Z,97227.77
2022-09-16T02:18:06.976Z,97226.25
2022-09-16T02:21:13.863Z,97226.66
2022-09-16T02:24:19.018Z,97225.09
2022-09-16T02:27:22.402Z,97225.15
2022-09-16T02:30:24.026Z,97222.15
2022-09-16T02:33:32.866Z,97225.26
2022-09-16T02:36:36.751Z,97222.86
2022-09-16T02:39:43.197Z,97223.43
2022-09-16T02:42:45.128Z,97232.11
2022-09-16T02:46:20.398Z,97239.98
2022-09-16T02:49:53.075Z,97235.70
2022-09-16T02:53:06.412Z,97235.61
2022-09-16T02:56:21.939Z,97240.46
2022-09-16T02:59:24.684Z,97243.94
2022-09-16T03:02:26.298Z,97245.27
2022-09-16T03:05:29.058Z,97251.61
2022-09-16T03:08:30.705Z,97245.18
2022-09-16T03:12:26.513Z,97238.08
2022-09-16T03:15:52.678Z,97233.41
2022-09-16T03:19:15.628Z,97231.84
2022-09-16T03:22:23.026Z,97232.38
2022-09-16T03:25:51.001Z,97233.08
2022-09-16T03:29:11.754Z,97230.38
2022-09-16T03:32:21.960Z,97227.46
2022-09-16T03:35:30.900Z,97230.36
2022-09-16T03:38:35.412Z,97227.96
2022-09-16T03:41:37.702Z,97228.15
2022-09-16T03:44:40.018Z,97234.65
2022-09-16T03:47:43.880Z,97226.76
2022-09-16T03:50:45.410Z,97232.25
2022-09-16T03:53:47.014Z,97235.82
2022-09-16T03:56:48.544Z,97233.37
2022-09-16T03:59:50.007Z,97229.23
2022-09-16T04:02:51.513Z,97225.54
2022-09-16T04:05:54.035Z,97230.13
2022-09-16T04:08:58.042Z,97230.64
2022-09-16T04:11:59.635Z,97230.46
2022-09-16T04:15:01.281Z,97230.44
2022-09-16T04:18:02.911Z,97227.22
2022-09-16T04:21:04.635Z,97224.89
2022-09-16T04:24:12.058Z,97226.10
2022-09-16T04:27:14.632Z,97226.51
2022-09-16T04:30:16.252Z,97221.11
2022-09-16T04:33:17.988Z,97225.75
2022-09-16T04:36:20.034Z,97230.23
2022-09-16T04:39:21.558Z,97230.14
2022-09-16T04:42:23.105Z,97232.30
2022-09-16T04:45:24.677Z,97236.78
2022-09-16T04:48:26.560Z,97230.69
2022-09-16T04:51:28.732Z,97231.30
2022-09-16T04:54:30.277Z,97224.35
2022-09-16T04:57:32.277Z,97222.74
2022-09-16T05:00:33.759Z,97214.19
2022-09-16T05:03:35.369Z,97215.77
2022-09-16T05:06:40.542Z,97221.31
2022-09-16T05:09:42.530Z,97233.15
2022-09-16T05:12:49.239Z,97232.31
2022-09-16T05:15:51.314Z,97224.35
2022-09-16T05:18:55.928Z,97224.86
2022-09-16T05:21:57.538Z,97233.17
2022-09-16T05:24:59.155Z,97239.52
2022-09-16T05:28:01.031Z,97242.69
2022-09-16T05:31:13.542Z,97232.81
2022-09-16T05:34:20.834Z,97226.79
2022-09-16T05:37:22.374Z,97230.43
2022-09-16T05:40:33.096Z,97238.45
2022-09-16T05:43:35.499Z,97238.98
2022-09-16T05:46:39.937Z,97235.31
2022-09-16T05:49:41.658Z,97234.59
2022-09-16T05:52:43.245Z,97234.81
2022-09-16T05:55:54.617Z,97231.77
2022-09-16T05:58:59.295Z,97231.79
2022-09-16T06:02:00.985Z,97232.02
2022-09-16T06:05:02.779Z,97235.81
2022-09-16T06:08:04.477Z,97230.42
2022-09-16T06:11:10.010Z,97233.00
2022-09-16T06:14:12.663Z,97231.61
2022-09-16T06:17:14.329Z,97235.28
2022-09-16T06:20:15.977Z,97241.98
2022-09-16T06:23:18.305Z,97243.27
2022-09-16T06:26:22.879Z,97243.63
2022-09-16T06:29:24.515Z,97239.38
2022-09-16T06:32:30.467Z,97229.72
2022-09-16T06:35:34.085Z,97228.30
2022-09-16T06:38:36.467Z,97227.00
2022-09-16T06:41:38.080Z,97225.46
2022-09-16T06:44:40.750Z,97231.00
2022-09-16T06:47:42.481Z,97237.48
2022-09-16T06:50:44.286Z,97237.17
2022-09-16T06:53:46.444Z,97240.54
2022-09-16T06:56:48.965Z,97237.14
2022-09-16T06:59:50.578Z,97236.05
2022-09-16T07:02:52.228Z,97237.30
2022-09-16T07:05:59.668Z,97239.00
2022-09-16T07:09:01.236Z,97237.26
2022-09-16T07:12:03.348Z,97239.05
2022-09-16T07:15:05.462Z,97243.89
2022-09-16T07:18:07.006Z,97240.02
2022-09-16T07:21:18.819Z,97250.56
2022-09-16T07:24:22.337Z,97250.61
2022-09-16T07:27:23.956Z,97246.00
2022-09-16T07:30:27.790Z,97252.65
2022-09-16T07:33:31.617Z,97248.23
2022-09-16T07:36:36.338Z,97243.65
2022-09-16T07:39:37.902Z,97240.35
2022-09-16T07:42:39.879Z,97244.23
2022-09-16T07:45:41.579Z,97244.86
2022-09-16T07:48:44.807Z,97248.27
2022-09-16T07:51:46.948Z,97245.12
2022-09-16T07:54:49.792Z,97248.42
2022-09-16T07:57:51.423Z,97253.52
2022-09-16T08:00:53.122Z,97253.96
2022-09-16T08:03:55.230Z,97265.66
2022-09-16T08:06:56.954Z,97266.16
2022-09-16T08:09:58.634Z,97269.42
2022-09-16T08:13:00.550Z,97274.77
2022-09-16T08:16:07.945Z,97277.25
2022-09-16T08:19:09.630Z,97272.99
2022-09-16T08:22:11.282Z,97268.44
2022-09-16T08:25:13.143Z,97268.84
2022-09-16T08:28:17.041Z,97270.00
2022-09-16T08:31:19.087Z,97277.10
2022-09-16T08:34:20.780Z,97274.94
2022-09-16T08:37:22.375Z,97276.61
2022-09-16T08:40:28.516Z,97273.77
2022-09-16T08:43:41.368Z,97274.42
2022-09-16T08:46:51.929Z,97274.98
2022-09-16T08:49:55.568Z,97276.61
2022-09-16T08:53:02.509Z,97275.40
2022-09-16T08:56:10.213Z,97279.36
2022-09-16T08:59:21.364Z,97285.61
2022-09-16T09:02:44.527Z,97277.83
2022-09-16T09:05:58.215Z,97277.48
2022-09-16T09:08:59.793Z,97274.98
2022-09-16T09:12:23.351Z,97272.41
2022-09-16T09:15:55.462Z,97272.79
2022-09-16T09:19:09.160Z,97272.70
2022-09-16T09:22:46.017Z,97276.38
2022-09-16T09:26:05.712Z,97274.01
2022-09-16T09:29:19.370Z,97276.15
2022-09-16T09:32:53.862Z,97278.91
2022-09-16T09:36:04.700Z,97273.85
2022-09-16T09:39:33.952Z,97272.77
2022-09-16T09:42:40.735Z,97273.80
2022-09-16T09:46:07.654Z,97274.74
2022-09-16T09:49:33.319Z,97270.91
2022-09-16T09:52:45.218Z,97271.39
2022-09-16T09:55:47.508Z,97269.74
2022-09-16T09:59:04.527Z,97269.52
2022-09-16T10:02:16.968Z,97268.91
2022-09-16T10:05:24.727Z,97268.77
2022-09-16T10:08:41.406Z,97264.64
2022-09-16T10:11:54.462Z,97268.77
2022-09-16T10:14:56.211Z,97257.86
2022-09-16T10:18:01.042Z,97256.88
2022-09-16T10:21:07.350Z,97251.10
2022-09-16T10:24:27.832Z,97251.92
2022-09-16T10:27:35.590Z,97253.18
2022-09-16T10:30:57.856Z,97252.45
2022-09-16T10:34:00.916Z,97255.81
2022-09-16T10:37:07.326Z,97260.33
2022-09-16T10:40:16.921Z,97255.13
2022-09-16T10:43:19.053Z,97250.00
2022-09-16T10:46:24.814Z,97254.88
2022-09-16T10:49:51.004Z,97253.73
2022-09-16T10:52:53.442Z,97248.88
2022-09-16T10:56:03.438Z,97249.69
2022-09-16T10:59:10.034Z,97243.52
2022-09-16T11:02:34.610Z,97239.46
2022-09-16T11:06:08.302Z,97235.48
2022-09-16T11:09:28.152Z,97235.34
2022-09-16T11:12:32.620Z,97233.04
2022-09-16T11:16:01.177Z,97237.19
2022-09-16T11:19:18.568Z,97238.09
2022-09-16T11:22:35.304Z,97238.05
2022-09-16T11:25:44.497Z,97235.73
2022-09-16T11:29:03.188Z,97234.77
2022-09-16T11:32:16.907Z,97229.95
2022-09-16T11:35:58.436Z,97225.85
2022-09-16T11:39:28.219Z,97224.30
2022-09-16T11:42:41.569Z,97220.13
2022-09-16T11:46:01.835Z,97218.23
2022-09-16T11:49:15.721Z,97211.69
2022-09-16T11:52:24.756Z,97204.34
2022-09-16T11:56:06.854Z,97198.95
2022-09-16T11:59:20.201Z,97199.48
2022-09-16T12:02:36.683Z,97187.13
2022-09-16T12:05:52.801Z,97184.39
2022-09-16T12:09:01.755Z,97181.95
2022-09-16T12:12:19.494Z,97185.42
2022-09-16T12:15:26.354Z,97185.69
2022-09-16T12:18:42.407Z,97183.29
2022-09-16T12:21:57.625Z,97187.04
2022-09-16T12:25:20.471Z,97205.09
2022-09-16T12:28:32.253Z,97202.82
2022-09-16T12:31:44.308Z,97202.41
2022-09-16T12:34:55.026Z,97205.17
2022-09-16T12:37:57.364Z,97208.48
2022-09-16T12:41:14.190Z,97220.70
2022-09-16T12:44:37.670Z,97234.97
2022-09-16T12:48:28.984Z,97231.06
2022-09-16T12:51:33.909Z,97216.90
2022-09-16T12:55:08.601Z,97219.15
2022-09-16T12:58:31.801Z,97220.23
2022-09-16T13:01:42.306Z,97214.94
2022-09-16T13:04:55.431Z,97218.00
2022-09-16T13:08:05.527Z,97214.66
2022-09-16T13:12:07.151Z,97217.27
2022-09-16T13:14:54.332Z,97216.80
2022-09-16T13:18:18.727Z,97211.95
2022-09-16T13:21:28.060Z,97211.05
2022-09-16T13:24:37.542Z,97214.20
2022-09-16T13:27:41.192Z,97220.70
2022-09-16T13:30:43.043Z,97217.80
2022-09-16T13:34:08.868Z,97219.11
2022-09-16T13:37:25.611Z,97214.13
2022-09-16T13:40:29.731Z,97212.42
2022-09-16T13:43:46.121Z,97210.73
2022-09-16T13:46:48.011Z,97211.77
2022-09-16T13:49:51.221Z,97208.75
2022-09-16T13:52:53.161Z,97200.31
2022-09-16T13:56:07.784Z,97202.97
2022-09-16T13:59:27.545Z,97195.48
2022-09-16T14:02:55.372Z,97190.83
2022-09-16T14:06:22.026Z,97187.69
2022-09-16T14:09:55.186Z,97183.36
2022-09-16T14:13:06.823Z,97179.01
2022-09-16T14:16:22.291Z,97177.86
2022-09-16T14:19:30.250Z,97173.41
2022-09-16T14:22:33.137Z,97166.41
2022-09-16T14:25:36.073Z,97166.38
2022-09-16T14:28:38.907Z,97155.74
2022-09-16T14:31:44.673Z,97156.99
2022-09-16T14:34:46.468Z,97157.10
2022-09-16T14:37:53.837Z,97161.40
2022-09-16T14:40:56.985Z,97152.98
2022-09-16T14:44:08.765Z,97155.28
2022-09-16T14:47:53.420Z,97156.38
2022-09-16T14:50:55.520Z,97154.39
2022-09-16T14:54:15.562Z,97150.88
2022-09-16T14:57:22.747Z,97142.70
2022-09-16T15:00:32.842Z,97145.04
2022-09-16T15:03:43.201Z,97147.04
2022-09-16T15:06:52.992Z,97143.67
2022-09-16T15:10:05.720Z,97142.32
2022-09-16T15:13:12.810Z,97139.39
2022-09-16T15:16:18.019Z,97134.73
2022-09-16T15:19:23.234Z,97136.44
2022-09-16T15:22:26.485Z,97131.77
2022-09-16T15:25:33.906Z,97127.89
2022-09-16T15:28:35.856Z,97126.44
2022-09-16T15:31:40.093Z,97129.64
2022-09-16T15:34:43.429Z,97127.41
2022-09-16T15:37:45.339Z,97120.74
2022-09-16T15:40:47.880Z,97120.69
2022-09-16T15:43:49.670Z,97119.83
2022-09-16T15:46:51.226Z,97122.93
2022-09-16T15:49:58.781Z,97119.64
2022-09-16T15:53:12.707Z,97121.27
2022-09-16T15:56:35.673Z,97122.97
2022-09-16T15:59:54.309Z,97126.40
2022-09-16T16:02:59.929Z,97128.36
2022-09-16T16:06:04.362Z,97124.80
2022-09-16T16:09:05.878Z,97127.59
2022-09-16T16:12:09.617Z,97125.31
2022-09-16T16:15:12.826Z,97124.00
2022-09-16T16:18:14.375Z,97123.91
2022-09-16T16:21:16.705Z,97123.64
2022-09-16T16:24:18.250Z,97125.77
2022-09-16T16:27:19.785Z,97126.40
2022-09-16T16:30:21.412Z,97123.84
2022-09-16T16:33:22.898Z,97121.70
2022-09-16T16:36:24.683Z,97121.23
2022-09-16T16:39:27.103Z,97115.71
2022-09-16T16:42:28.957Z,97116.60
2022-09-16T16:45:30.604Z,97113.17
2022-09-16T16:48:32.350Z,97105.95
2022-09-16T16:51:33.938Z,97105.86
2022-09-16T16:54:35.775Z,97113.40
2022-09-16T16:57:37.298Z,97118.23
2022-09-16T17:00:39.352Z,97112.81
2022-09-16T17:03:41.867Z,97113.41
2022-09-16T17:06:44.282Z,97108.55
2022-09-16T17:09:45.843Z,97108.52
2022-09-16T17:12:47.419Z,97112.20
2022-09-16T17:15:49.368Z,97112.52
2022-09-16T17:18:52.135Z,97112.75
2022-09-16T17:21:55.046Z,97125.98
2022-09-16T17:24:56.674Z,97136.61
2022-09-16T17:27:58.209Z,97136.84
2022-09-16T17:30:59.876Z,97144.57
2022-09-16T17:34:04.923Z,97145.04
2022-09-16T17:37:07.869Z,97146.11
2022-09-16T17:40:10.077Z,97147.01
2022-09-16T17:43:11.822Z,97147.11
2022-09-16T17:46:16.483Z,97146.19
2022-09-16T17:49:24.078Z,97148.03
2022-09-16T17:52:25.640Z,97148.41
2022-09-16T17:55:27.210Z,97148.39
2022-09-16T17:58:30.362Z,97149.36
2022-09-16T18:01:33.945Z,97153.79
2022-09-16T18:04:35.623Z,97148.91
2022-09-16T18:07:37.274Z,97145.71
2022-09-16T18:10:38.766Z,97152.09
2022-09-16T18:13:41.079Z,97152.04
2022-09-16T18:16:43.159Z,97157.90
2022-09-16T18:19:44.826Z,97158.45
2022-09-16T18:22:48.039Z,97159.53
2022-09-16T18:25:49.987Z,97158.60
2022-09-16T18:29:20.548Z,97158.73
2022-09-16T18:32:16.029Z,97158.67
2022-09-16T18:35:19.307Z,97160.09
2022-09-16T18:38:21.130Z,97159.17
2022-09-16T18:41:26.028Z,97163.10
2022-09-16T18:44:28.001Z,97163.48
2022-09-16T18:47:29.670Z,97169.67
2022-09-16T18:50:33.199Z,97178.36
2022-09-16T18:53:34.911Z,97178.55
2022-09-16T18:56:38.361Z,97184.41
2022-09-16T18:59:40.407Z,97181.68
2022-09-16T19:02:42.877Z,97186.39
2022-09-16T19:05:56.377Z,97181.61
2022-09-16T19:09:00.007Z,97177.83
2022-09-16T19:12:02.473Z,97177.70
2022-09-16T19:15:07.151Z,97174.13
2022-09-16T19:18:11.987Z,97176.93
2022-09-16T19:21:16.535Z,97180.49
2022-09-16T19:24:24.026Z,97184.54
2022-09-16T19:27:25.908Z,97177.85
2022-09-16T19:30:29.053Z,97172.50
2022-09-16T19:33:31.016Z,97172.35
2022-09-16T19:36:34.410Z,97168.36
2022-09-16T19:39:42.978Z,97167.61
2022-09-16T19:42:44.921Z,97161.48
2022-09-16T19:45:48.298Z,97164.19
2022-09-16T19:48:52.452Z,97161.46
2022-09-16T19:51:56.348Z,97168.45
2022-09-16T19:54:57.926Z,97166.84
2022-09-16T19:58:03.351Z,97168.20
2022-09-16T20:01:17.939Z,97166.50
2022-09-16T20:04:21.667Z,97168.15
2022-09-16T20:07:24.131Z,97166.70
2022-09-16T20:10:29.429Z,97165.32
2022-09-16T20:13:33.638Z,97165.48
2022-09-16T20:16:37.681Z,97169.06
2022-09-16T20:19:39.980Z,97175.12
2022-09-16T20:22:41.886Z,97172.48
2022-09-16T20:25:54.085Z,97177.45
2022-09-16T20:29:01.135Z,97180.86
2022-09-16T20:32:03.489Z,97178.99
2022-09-16T20:35:05.731Z,97177.79
2022-09-16T20:38:07.837Z,97176.48
2022-09-16T20:41:09.511Z,97177.65
2022-09-16T20:44:14.020Z,97177.04
2022-09-16T20:47:15.583Z,97179.33
2022-09-16T20:50:17.345Z,97182.48
2022-09-16T20:53:18.878Z,97191.31
2022-09-16T20:56:20.712Z,97197.41
2022-09-16T20:59:24.321Z,97191.78
2022-09-16T21:02:27.150Z,97191.34
2022-09-16T21:05:28.741Z,97186.20
2022-09-16T21:08:34.039Z,97186.02
2022-09-16T21:11:36.729Z,97184.81
2022-09-16T21:14:39.294Z,97183.86
2022-09-16T21:17:40.806Z,97188.11
2022-09-16T21:20:43.376Z,97188.13
2022-09-16T21:23:48.676Z,97189.74
2022-09-16T21:26:50.689Z,97191.11
2022-09-16T21:29:52.141Z,97188.26
2022-09-16T21:32:53.645Z,97188.60
2022-09-16T21:35:55.217Z,97189.08
2022-09-16T21:38:57.283Z,97191.50
2022-09-16T21:41:59.930Z,97196.76
2022-09-16T21:45:02.096Z,97196.95
2022-09-16T21:48:03.624Z,97197.98
2022-09-16T21:51:07.630Z,97201.91
2022-09-16T21:54:09.578Z,97201.97
2022-09-16T21:57:11.078Z,97204.38
2022-09-16T22:00:13.064Z,97201.68
2022-09-16T22:03:14.969Z,97199.68
2022-09-16T22:06:19.410Z,97194.45
2022-09-16T22:09:21.589Z,97197.33
2022-09-16T22:12:23.089Z,97194.89
2022-09-16T22:15:24.621Z,97202.05
2022-09-16T22:18:27.941Z,97207.33
2022-09-16T22:21:32.089Z,97208.41
2022-09-16T22:24:33.754Z,97208.82
2022-09-16T22:27:35.235Z,97208.79
2022-09-16T22:30:36.772Z,97213.08
2022-09-16T22:33:40.421Z,97214.05
2022-09-16T22:36:42.024Z,97217.11
2022-09-16T22:39:43.568Z,97214.68
2022-09-16T22:42:45.078Z,97216.17
2022-09-16T22:45:46.592Z,97218.38
2022-09-16T22:48:49.046Z,97213.34
2022-09-16T22:51:50.720Z,97212.45
2022-09-16T22:54:52.143Z,97212.27
2022-09-16T22:57:53.640Z,97213.63
2022-09-16T23:01:08.844Z,97208.27
2022-09-16T23:04:10.630Z,97213.48
2022-09-16T23:07:12.768Z,97209.79
2022-09-16T23:10:14.344Z,97208.73
2022-09-16T23:13:15.829Z,97204.26
2022-09-16T23:16:20.060Z,97201.30
2022-09-16T23:19:22.366Z,97202.27
2022-09-16T23:22:23.912Z,97196.56
2022-09-16T23:25:25.403Z,97198.09
2022-09-16T23:28:27.070Z,97192.02
2022-09-16T23:31:31.474Z,97186.89
2022-09-16T23:34:33.159Z,97184.73
2022-09-16T23:37:34.637Z,97182.59
2022-09-16T23:40:37.167Z,97180.30
2022-09-16T23:43:40.935Z,97184.35
2022-09-16T23:46:42.612Z,97188.55
2022-09-16T23:49:44.132Z,97181.86
2022-09-16T23:52:46.929Z,97179.52
2022-09-16T23:55:48.509Z,97175.45
2022-09-16T23:58:51.457Z,97174.66
